Annette Island, AK

6:44 PM AKDT on July 28, 2016 (GMT -0800)
ravens loop | | Change Station

Elev 161 ft 55.12 °N, 131.58 °W | Updated 12 seconds ago

Clear
Clear
67.3 °F
Feels Like 67.3 °F
N
8.3
Wind Variable Wind from SW

Today
High -- | Low -- °F
--% Chance of Precip.
Yesterday
High -- | Low -- °F
Precip. -- in
Pressure 30.23 in
Visibility 10.0 miles
Clouds Clear
Dew Point 52 °F
Humidity 57%
Rainfall 0.23 in
Snow Depth Not available.
4:49 AM 8:55 PM
Waning Crescent, 26% visible
METAR PAMM 290236Z AUTO 23008KT 10SM CLR 20/13 A3023 RMK AO1
Pressure 30.23 in
Visibility 10.0 miles
Clouds Clear
Dew Point 52 °F
Humidity 57%
Rainfall 0.23 in
Snow Depth Not available.
4:49 AM 8:55 PM
Waning Crescent, 26% visible
METAR PAMM 290236Z AUTO 23008KT 10SM CLR 20/13 A3023 RMK AO1

10-Day Weather Forecast

Almanac

Astronomy

Jul. 28, 2016 Rise Set
Actual Time
Civil Twilight
Nautical Twilight
Astronomical Twilight
Moon
Length of Visible Light
Length of Day
Tomorrow will be .
, % of the Moon is Illuminated

Today's Extremes

State Highs State Lows

Community

WunderPhotos

Upload Photos

1,928,274 photos uploaded!

WunderBlog® & News

Nearby

Air Quality

  Air Quality AQ Index Pollutant
Not available.

Snow Depth

Station Depth Elevation

Earthquake Activity

City Distance Mag. Time & Date
Minimum magnitude displayed is 2.5.

Coastal Water Temperatures

Place Temperature

Stations

Nearby Weather Stations

Station Location Temp. Windchill Dew Point Humidity Wind Precip. Elev Updated Type
                   

Watches & Warnings

There are currently no watches in effect.